createdAt,value
2019-06-27T00:00:54.648Z,70.69
2019-06-27T00:01:54.629Z,70.69
2019-06-27T00:02:54.573Z,70.59
2019-06-27T00:03:54.585Z,70.59
2019-06-27T00:04:54.555Z,70.99
2019-06-27T00:05:54.553Z,70.49
2019-06-27T00:06:54.566Z,70.79
2019-06-27T00:07:54.532Z,70.53
2019-06-27T00:08:54.509Z,70.69
2019-06-27T00:09:54.539Z,70.09
2019-06-27T00:10:54.500Z,70.42
2019-06-27T00:11:54.523Z,70.83
2019-06-27T00:12:54.474Z,70.72
2019-06-27T00:13:54.469Z,70.53
2019-06-27T00:14:54.455Z,71.02
2019-06-27T00:15:54.438Z,71.02
2019-06-27T00:16:54.467Z,71.12
2019-06-27T00:17:54.475Z,70.62
2019-06-27T00:18:54.418Z,70.83
2019-06-27T00:19:54.410Z,70.83
2019-06-27T00:20:54.415Z,70.72
2019-06-27T00:21:54.416Z,70.62
2019-06-27T00:22:54.377Z,71.36
2019-06-27T00:23:54.357Z,71.36
2019-06-27T00:24:54.351Z,70.53
2019-06-27T00:25:54.331Z,70.95
2019-06-27T00:26:57.563Z,70.36
2019-06-27T00:27:54.317Z,69.76
2019-06-27T00:28:54.317Z,70.95
2019-06-27T00:29:54.324Z,70.26
2019-06-27T00:30:54.276Z,69.86
2019-06-27T00:31:54.311Z,69.86
2019-06-27T00:32:54.306Z,69.56
2019-06-27T00:33:54.285Z,71.45
2019-06-27T00:34:54.239Z,70.76
2019-06-27T00:35:54.244Z,69.66
2019-06-27T00:36:54.225Z,69.79
2019-06-27T00:37:54.203Z,69.79
2019-06-27T00:38:54.260Z,69.69
2019-06-27T00:39:54.194Z,69.69
2019-06-27T00:40:54.190Z,70.39
2019-06-27T00:41:54.172Z,70.59
2019-06-27T00:42:54.187Z,71.09
2019-06-27T00:43:54.198Z,70.59
2019-06-27T00:44:54.146Z,70.79
2019-06-27T00:45:54.132Z,70.59
2019-06-27T00:46:54.106Z,70.39
2019-06-27T00:47:54.111Z,71.09
2019-06-27T00:48:54.143Z,70.79
2019-06-27T00:49:54.084Z,70.83
2019-06-27T00:50:54.076Z,71.22
2019-06-27T00:51:54.062Z,71.52
2019-06-27T00:52:54.058Z,70.62
2019-06-27T00:53:54.082Z,70.23
2019-06-27T00:54:54.050Z,70.62
2019-06-27T00:55:54.014Z,71.22
2019-06-27T00:56:54.028Z,71.12
2019-06-27T00:57:54.004Z,71.22
2019-06-27T00:58:54.028Z,71.22
2019-06-27T00:59:54.036Z,71.62
2019-06-27T01:00:53.969Z,71.72
2019-06-27T01:01:53.959Z,71.62
2019-06-27T01:02:53.955Z,71.62
2019-06-27T01:03:53.975Z,71.62
2019-06-27T01:04:53.924Z,72.06
2019-06-27T01:05:53.924Z,71.56
2019-06-27T01:06:53.923Z,71.86
2019-06-27T01:07:53.887Z,71.56
2019-06-27T01:08:53.906Z,71.96
2019-06-27T01:09:53.912Z,72.06
2019-06-27T01:10:53.857Z,71.86
2019-06-27T01:11:53.869Z,71.76
2019-06-27T01:12:53.837Z,72.06
2019-06-27T01:13:53.825Z,72.36
2019-06-27T01:14:53.817Z,72.06
2019-06-27T01:15:53.831Z,72.96
2019-06-27T01:16:53.840Z,71.96
2019-06-27T01:17:53.790Z,72.16
2019-06-27T01:18:53.769Z,72.45
2019-06-27T01:19:53.788Z,73.36
2019-06-27T01:20:53.774Z,73.09
2019-06-27T01:21:53.766Z,73.06
2019-06-27T01:22:53.736Z,73.19
2019-06-27T01:23:53.720Z,72.09
2019-06-27T01:24:53.713Z,72.29
2019-06-27T01:25:53.735Z,72.69
2019-06-27T01:26:53.685Z,73.19
2019-06-27T01:27:53.709Z,73.19
2019-06-27T01:28:53.682Z,73.19
2019-06-27T01:29:53.668Z,73.19
2019-06-27T01:30:53.685Z,73.29
2019-06-27T01:31:53.635Z,73.22
2019-06-27T01:32:53.638Z,73.33
2019-06-27T01:33:53.620Z,73.09
2019-06-27T01:34:53.600Z,73.19
2019-06-27T01:35:53.586Z,73.22
2019-06-27T01:36:53.606Z,73.33
2019-06-27T01:37:53.573Z,73.63
2019-06-27T01:38:53.560Z,73.72
2019-06-27T01:39:53.548Z,73.63
2019-06-27T01:40:53.534Z,73.72
2019-06-27T01:41:53.567Z,73.76
2019-06-27T01:42:53.517Z,74.22
2019-06-27T01:43:53.500Z,73.86
2019-06-27T01:44:53.506Z,73.63
2019-06-27T01:45:53.484Z,73.46
2019-06-27T01:46:53.522Z,73.76
2019-06-27T01:47:53.478Z,73.76
2019-06-27T01:48:53.444Z,73.76
2019-06-27T01:49:53.439Z,73.66
2019-06-27T01:50:53.425Z,73.76
2019-06-27T01:51:53.442Z,73.56
2019-06-27T01:52:53.441Z,73.86
2019-06-27T01:53:53.402Z,74.16
2019-06-27T01:54:53.376Z,73.90
2019-06-27T01:55:53.406Z,73.76
2019-06-27T01:56:53.368Z,74.00
2019-06-27T01:57:53.396Z,74.06
2019-06-27T01:58:53.336Z,74.50
2019-06-27T01:59:53.338Z,74.10
2019-06-27T02:00:53.331Z,74.20
2019-06-27T02:01:53.296Z,74.50
2019-06-27T02:02:53.354Z,73.90
2019-06-27T02:03:53.306Z,74.40
2019-06-27T02:04:53.272Z,74.20
2019-06-27T02:05:53.255Z,74.80
2019-06-27T02:06:53.287Z,75.00
2019-06-27T02:07:53.280Z,74.93
2019-06-27T02:08:53.259Z,75.23
2019-06-27T02:09:53.235Z,74.63
2019-06-27T02:10:53.211Z,75.23
2019-06-27T02:11:53.200Z,75.84
2019-06-27T02:12:53.177Z,75.13
2019-06-27T02:13:53.205Z,75.13
2019-06-27T02:14:53.183Z,75.54
2019-06-27T02:15:53.163Z,75.67
2019-06-27T02:16:53.235Z,75.67
2019-06-27T02:17:53.179Z,75.77
2019-06-27T02:18:53.160Z,75.67
2019-06-27T02:19:53.106Z,75.87
2019-06-27T02:20:53.095Z,75.27
2019-06-27T02:21:53.098Z,75.27
2019-06-27T02:22:53.102Z,75.97
2019-06-27T02:23:53.062Z,76.01
2019-06-27T02:24:53.088Z,76.01
2019-06-27T02:25:53.045Z,76.28
2019-06-27T02:26:53.045Z,76.31
2019-06-27T02:28:03.200Z,76.41
2019-06-27T02:28:54.044Z,76.31
2019-06-27T02:29:53.004Z,76.61
2019-06-27T02:30:52.984Z,76.71
2019-06-27T02:31:53.001Z,76.41
2019-06-27T02:32:52.963Z,76.71
2019-06-27T02:33:53.014Z,76.61
2019-06-27T02:34:52.954Z,76.61
2019-06-27T02:35:52.968Z,76.31
2019-06-27T02:36:52.935Z,76.91
2019-06-27T02:37:52.914Z,76.91
2019-06-27T02:38:52.904Z,76.41
2019-06-27T02:39:52.915Z,77.31
2019-06-27T02:40:52.880Z,77.35
2019-06-27T02:41:52.883Z,77.61
2019-06-27T02:42:52.875Z,77.65
2019-06-27T02:43:52.896Z,77.55
2019-06-27T02:44:52.848Z,77.45
2019-06-27T02:45:52.829Z,77.85
2019-06-27T02:46:52.810Z,77.35
2019-06-27T02:47:52.799Z,77.25
2019-06-27T02:48:52.833Z,77.65
2019-06-27T02:49:52.799Z,77.25
2019-06-27T02:50:52.770Z,77.65
2019-06-27T02:51:52.807Z,77.85
2019-06-27T02:52:52.753Z,78.05
2019-06-27T02:53:52.747Z,77.95
2019-06-27T02:54:52.729Z,77.85
2019-06-27T02:55:52.746Z,77.85
2019-06-27T02:56:52.706Z,78.66
2019-06-27T02:57:52.696Z,78.15
2019-06-27T02:58:52.690Z,78.55
2019-06-27T02:59:52.710Z,78.35
2019-06-27T03:00:52.674Z,78.35
2019-06-27T03:01:52.654Z,78.66
2019-06-27T03:02:52.658Z,78.49
2019-06-27T03:03:52.635Z,79.16
2019-06-27T03:04:52.656Z,78.59
2019-06-27T03:05:52.648Z,78.39
2019-06-27T03:06:52.602Z,78.79
2019-06-27T03:07:52.582Z,79.19
2019-06-27T03:08:52.581Z,78.89
2019-06-27T03:09:52.617Z,78.89
2019-06-27T03:10:52.563Z,79.23
2019-06-27T03:11:52.608Z,78.99
2019-06-27T03:12:52.591Z,78.59
2019-06-27T03:13:52.521Z,78.99
2019-06-27T03:14:52.516Z,79.29
2019-06-27T03:15:52.539Z,79.39
2019-06-27T03:16:52.493Z,79.49
2019-06-27T03:17:52.483Z,79.23
2019-06-27T03:18:52.609Z,79.53
2019-06-27T03:19:52.478Z,79.39
2019-06-27T03:20:52.444Z,79.13
2019-06-27T03:21:52.450Z,79.13
2019-06-27T03:22:52.422Z,79.23
2019-06-27T03:23:52.466Z,80.13
2019-06-27T03:24:52.411Z,80.54
2019-06-27T03:25:52.396Z,80.54
2019-06-27T03:26:52.427Z,80.33
2019-06-27T03:27:52.378Z,80.63
2019-06-27T03:28:54.064Z,80.13
2019-06-27T03:29:52.347Z,80.54
2019-06-27T03:30:52.360Z,80.04
2019-06-27T03:31:52.401Z,80.63
2019-06-27T03:32:52.411Z,80.94
2019-06-27T03:33:52.306Z,80.94
2019-06-27T03:34:52.318Z,80.94
2019-06-27T03:35:52.303Z,80.83
2019-06-27T03:36:52.285Z,80.54
2019-06-27T03:37:52.312Z,80.57
2019-06-27T03:38:52.289Z,80.57
2019-06-27T03:39:52.272Z,80.57
2019-06-27T03:40:52.233Z,80.88
2019-06-27T03:41:52.242Z,81.18
2019-06-27T03:42:52.276Z,81.27
2019-06-27T03:43:52.210Z,80.27
2019-06-27T03:44:52.182Z,81.07
2019-06-27T03:45:52.197Z,80.57
2019-06-27T03:46:52.164Z,81.27
2019-06-27T03:47:52.184Z,81.48
2019-06-27T03:48:52.184Z,81.07
2019-06-27T03:49:52.136Z,81.18
2019-06-27T03:50:55.810Z,81.27
2019-06-27T03:51:52.114Z,81.27
2019-06-27T03:52:52.142Z,81.68
2019-06-27T03:53:52.093Z,80.57
2019-06-27T03:54:52.078Z,80.98
2019-06-27T03:55:52.070Z,80.98
2019-06-27T03:56:52.062Z,80.98
2019-06-27T03:57:52.086Z,81.32
2019-06-27T03:59:10.625Z,81.32
2019-06-27T03:59:53.044Z,81.18
2019-06-27T04:00:52.020Z,81.18
2019-06-27T04:01:52.021Z,81.82
2019-06-27T04:02:52.000Z,81.32
2019-06-27T04:03:52.021Z,81.72
2019-06-27T04:04:52.004Z,81.27
2019-06-27T04:05:51.980Z,81.18
2019-06-27T04:06:51.966Z,81.58
2019-06-27T04:07:51.934Z,81.12
2019-06-27T04:08:51.950Z,81.21
2019-06-27T04:09:51.940Z,81.41
2019-06-27T04:10:51.914Z,81.21
2019-06-27T04:11:51.919Z,81.21
2019-06-27T04:12:51.892Z,81.72
2019-06-27T04:13:51.933Z,81.92
2019-06-27T04:14:51.868Z,82.42
2019-06-27T04:15:51.850Z,81.52
2019-06-27T04:16:51.857Z,81.52
2019-06-27T04:17:51.886Z,81.21
2019-06-27T04:18:51.814Z,81.82
2019-06-27T04:19:51.833Z,82.12
2019-06-27T04:20:51.840Z,81.82
2019-06-27T04:21:51.786Z,81.21
2019-06-27T04:22:51.836Z,81.21
2019-06-27T04:23:51.776Z,81.41
2019-06-27T04:24:51.767Z,81.21
2019-06-27T04:25:51.749Z,81.21
2019-06-27T04:26:51.734Z,81.01
2019-06-27T04:27:51.767Z,81.62
2019-06-27T04:28:51.715Z,81.21
2019-06-27T04:29:51.707Z,81.32
2019-06-27T04:30:51.710Z,81.32
2019-06-27T04:31:51.685Z,81.01
2019-06-27T04:32:51.718Z,81.01
2019-06-27T04:33:51.670Z,80.91
2019-06-27T04:34:51.673Z,81.01
2019-06-27T04:35:51.642Z,80.71
2019-06-27T04:36:51.649Z,81.21
2019-06-27T04:37:51.611Z,81.12
2019-06-27T04:38:51.720Z,81.32
2019-06-27T04:39:51.595Z,81.12
2019-06-27T04:40:51.578Z,81.32
2019-06-27T04:41:51.569Z,81.32
2019-06-27T04:42:51.572Z,81.12
2019-06-27T04:43:51.600Z,81.01
2019-06-27T04:44:51.672Z,81.01
2019-06-27T04:45:51.581Z,81.21
2019-06-27T04:46:51.516Z,81.32
2019-06-27T04:47:51.524Z,81.12
2019-06-27T04:48:51.508Z,81.12
2019-06-27T04:49:51.624Z,81.12
2019-06-27T04:50:51.483Z,80.71
2019-06-27T04:51:51.474Z,81.32
2019-06-27T04:52:51.448Z,81.21
2019-06-27T04:53:51.442Z,80.41
2019-06-27T04:54:51.435Z,80.91
2019-06-27T04:55:51.449Z,80.77
2019-06-27T04:56:51.426Z,80.88
2019-06-27T04:57:51.426Z,80.91
2019-06-27T04:58:51.396Z,81.01
2019-06-27T04:59:53.765Z,80.81
2019-06-27T05:00:51.480Z,80.61
2019-06-27T05:01:51.359Z,80.41
2019-06-27T05:02:51.348Z,80.11
2019-06-27T05:03:51.518Z,81.07
2019-06-27T05:04:51.317Z,80.98
2019-06-27T05:05:51.337Z,80.61
2019-06-27T05:06:51.323Z,80.41
2019-06-27T05:07:51.347Z,80.61
2019-06-27T05:08:51.305Z,80.77
2019-06-27T05:09:51.265Z,81.18
2019-06-27T05:10:51.300Z,81.01
2019-06-27T05:11:51.250Z,80.77
2019-06-27T05:12:51.236Z,81.01
2019-06-27T05:13:51.241Z,80.61
2019-06-27T05:14:51.205Z,80.07
2019-06-27T05:15:51.294Z,80.37
2019-06-27T05:16:51.186Z,80.91
2019-06-27T05:17:51.189Z,80.77
2019-06-27T05:18:51.190Z,80.68
2019-06-27T05:19:51.155Z,79.87
2019-06-27T05:20:51.148Z,80.37
2019-06-27T05:21:51.163Z,79.93
2019-06-27T05:22:51.120Z,79.77
2019-06-27T05:23:51.118Z,80.27
2019-06-27T05:24:51.107Z,79.53
2019-06-27T05:25:51.087Z,79.53
2019-06-27T05:26:51.133Z,79.73
2019-06-27T05:27:51.076Z,79.67
2019-06-27T05:28:51.080Z,79.23
2019-06-27T05:29:51.061Z,79.69
2019-06-27T05:30:51.726Z,79.13
2019-06-27T05:31:51.073Z,79.63
2019-06-27T05:32:51.031Z,79.43
2019-06-27T05:33:51.013Z,79.03
2019-06-27T05:34:51.006Z,79.03
2019-06-27T05:35:51.000Z,78.73
2019-06-27T05:36:50.986Z,79.03
2019-06-27T05:37:51.087Z,78.63
2019-06-27T05:38:50.950Z,78.73
2019-06-27T05:39:50.949Z,79.43
2019-06-27T05:40:50.960Z,80.63
2019-06-27T05:41:50.916Z,78.83
2019-06-27T05:42:50.907Z,78.73
2019-06-27T05:43:50.936Z,79.03
2019-06-27T05:44:50.940Z,78.73
2019-06-27T05:45:50.952Z,78.33
2019-06-27T05:46:50.872Z,79.13
2019-06-27T05:47:50.854Z,79.03
2019-06-27T05:48:50.870Z,78.93
2019-06-27T05:49:50.859Z,79.13
2019-06-27T05:50:50.853Z,78.93
2019-06-27T05:51:50.814Z,78.83
2019-06-27T05:52:50.810Z,79.03
2019-06-27T05:53:50.787Z,78.42
2019-06-27T05:54:50.814Z,78.73
2019-06-27T05:55:50.762Z,78.93
2019-06-27T05:56:50.757Z,78.93
2019-06-27T05:57:50.834Z,79.13
2019-06-27T05:58:52.056Z,78.73
2019-06-27T05:59:50.724Z,78.53
2019-06-27T06:00:50.763Z,78.79
2019-06-27T06:01:50.725Z,78.79
2019-06-27T06:02:50.735Z,78.09
2019-06-27T06:03:50.709Z,77.09
2019-06-27T06:04:50.689Z,77.89
2019-06-27T06:05:50.710Z,78.29
2019-06-27T06:06:50.678Z,78.39
2019-06-27T06:07:50.634Z,78.09
2019-06-27T06:08:50.637Z,78.19
2019-06-27T06:09:50.626Z,78.69
2019-06-27T06:10:50.667Z,78.15
2019-06-27T06:11:50.670Z,77.35
2019-06-27T06:12:50.577Z,78.05
2019-06-27T06:13:50.616Z,77.85
2019-06-27T06:14:50.606Z,77.81
2019-06-27T06:15:50.672Z,77.01
2019-06-27T06:16:50.545Z,77.21
2019-06-27T06:17:50.543Z,76.41
2019-06-27T06:18:50.524Z,76.21
2019-06-27T06:19:50.639Z,76.37
2019-06-27T06:20:50.522Z,76.78
2019-06-27T06:21:50.525Z,75.97
2019-06-27T06:22:50.484Z,76.41
2019-06-27T06:23:50.490Z,76.67
2019-06-27T06:24:50.515Z,75.67
2019-06-27T06:25:50.447Z,76.67
2019-06-27T06:26:50.464Z,75.37
2019-06-27T06:27:50.476Z,74.93
2019-06-27T06:28:50.416Z,74.77
2019-06-27T06:29:50.447Z,75.27
2019-06-27T06:30:50.390Z,75.87
2019-06-27T06:31:50.409Z,76.37
2019-06-27T06:32:50.458Z,76.28
2019-06-27T06:33:50.350Z,75.87
2019-06-27T06:34:50.340Z,75.63
2019-06-27T06:35:50.329Z,75.93
2019-06-27T06:36:50.325Z,76.34
2019-06-27T06:37:50.387Z,74.90
2019-06-27T06:38:50.310Z,74.40
2019-06-27T06:39:50.315Z,74.33
2019-06-27T06:40:50.277Z,74.84
2019-06-27T06:41:50.263Z,75.13
2019-06-27T06:42:50.350Z,74.80
2019-06-27T06:43:50.257Z,74.50
2019-06-27T06:44:50.389Z,74.43
2019-06-27T06:45:50.261Z,74.50
2019-06-27T06:46:50.220Z,75.30
2019-06-27T06:47:50.236Z,74.30
2019-06-27T06:48:50.187Z,74.90
2019-06-27T06:49:50.178Z,73.46
2019-06-27T06:50:50.205Z,73.66
2019-06-27T06:51:50.196Z,73.60
2019-06-27T06:52:50.154Z,73.50
2019-06-27T06:53:50.163Z,74.37
2019-06-27T06:54:50.119Z,73.60
2019-06-27T06:55:50.122Z,73.90
2019-06-27T06:56:50.123Z,74.10
2019-06-27T06:57:50.129Z,73.96
2019-06-27T06:58:50.119Z,73.66
2019-06-27T06:59:50.071Z,73.86
2019-06-27T07:01:00.776Z,73.56
2019-06-27T07:01:51.088Z,73.26
2019-06-27T07:02:50.062Z,73.26
2019-06-27T07:03:50.146Z,73.06
2019-06-27T07:04:50.019Z,73.76
2019-06-27T07:05:50.065Z,73.36
2019-06-27T07:06:50.058Z,73.76
2019-06-27T07:07:50.055Z,73.33
2019-06-27T07:08:50.010Z,73.63
2019-06-27T07:09:50.049Z,72.53
2019-06-27T07:10:49.962Z,71.73
2019-06-27T07:11:49.946Z,72.33
2019-06-27T07:12:49.949Z,72.33
2019-06-27T07:13:49.917Z,72.99
2019-06-27T07:14:49.944Z,71.19
2019-06-27T07:15:49.908Z,71.09
2019-06-27T07:16:49.908Z,71.69
2019-06-27T07:17:49.909Z,70.86
2019-06-27T07:18:49.881Z,71.09
2019-06-27T07:19:49.915Z,70.89
2019-06-27T07:20:49.855Z,70.69
2019-06-27T07:21:49.843Z,71.49
2019-06-27T07:22:49.828Z,71.46
2019-06-27T07:23:49.828Z,69.86
2019-06-27T07:24:49.860Z,70.49
2019-06-27T07:25:49.809Z,70.09
2019-06-27T07:26:49.844Z,70.66
2019-06-27T07:27:49.774Z,70.79
2019-06-27T07:28:49.830Z,69.86
2019-06-27T07:29:49.807Z,69.23
2019-06-27T07:30:49.735Z,69.13
2019-06-27T07:31:49.735Z,68.43
2019-06-27T07:32:49.736Z,68.23
2019-06-27T07:33:49.704Z,68.43
2019-06-27T07:34:49.738Z,68.19
2019-06-27T07:35:49.694Z,68.16
2019-06-27T07:36:49.680Z,66.86
2019-06-27T07:37:49.707Z,66.53
2019-06-27T07:38:49.649Z,65.41
2019-06-27T07:39:49.653Z,64.87
2019-06-27T07:40:49.713Z,64.45
2019-06-27T07:41:49.635Z,64.34
2019-06-27T07:42:49.617Z,63.52
2019-06-27T07:43:49.641Z,61.96
2019-06-27T07:44:49.746Z,62.63
2019-06-27T07:45:49.587Z,61.01
2019-06-27T07:46:49.619Z,60.02
2019-06-27T07:47:49.569Z,60.12
2019-06-27T07:48:49.566Z,59.96
2019-06-27T07:49:49.568Z,57.95
2019-06-27T07:50:49.593Z,57.29
2019-06-27T07:51:49.606Z,56.23
2019-06-27T07:52:49.502Z,53.53
2019-06-27T07:53:49.540Z,53.70
2019-06-27T07:54:49.493Z,51.92
2019-06-27T07:55:49.489Z,52.22
2019-06-27T07:56:49.526Z,53.00
2019-06-27T07:57:49.454Z,51.82
2019-06-27T07:58:49.442Z,51.57
2019-06-27T07:59:49.522Z,51.07
2019-06-27T08:00:49.439Z,50.29
2019-06-27T08:01:49.474Z,52.06
2019-06-27T08:02:49.403Z,51.32
2019-06-27T08:03:49.460Z,49.90
2019-06-27T08:04:49.385Z,48.88
2019-06-27T08:05:49.389Z,48.76
2019-06-27T08:06:49.440Z,47.48
2019-06-27T08:07:49.383Z,47.66
2019-06-27T08:08:49.385Z,47.94
2019-06-27T08:09:49.338Z,49.74
2019-06-27T08:10:49.325Z,49.72
2019-06-27T08:11:49.342Z,48.83
2019-06-27T08:12:49.303Z,49.15
2019-06-27T08:13:49.368Z,49.65
2019-06-27T08:14:49.279Z,49.13
2019-06-27T08:15:49.320Z,49.05
2019-06-27T08:16:49.290Z,49.03
2019-06-27T08:17:49.242Z,48.88
2019-06-27T08:18:49.259Z,49.99
2019-06-27T08:19:49.244Z,49.99
2019-06-27T08:20:49.223Z,50.56
2019-06-27T08:21:49.274Z,49.37
2019-06-27T08:22:49.269Z,50.12
2019-06-27T08:23:49.403Z,50.78
2019-06-27T08:24:49.179Z,49.57
2019-06-27T08:25:49.195Z,49.48
2019-06-27T08:26:49.194Z,49.20
2019-06-27T08:27:49.161Z,49.49
2019-06-27T08:28:49.164Z,49.10
2019-06-27T08:29:49.117Z,48.98
2019-06-27T08:30:49.117Z,47.69
2019-06-27T08:31:51.784Z,49.48
2019-06-27T08:32:49.137Z,48.46
2019-06-27T08:33:56.104Z,48.61
2019-06-27T08:34:49.071Z,47.88
2019-06-27T08:35:49.059Z,46.18
2019-06-27T08:36:49.063Z,46.15
2019-06-27T08:37:49.156Z,44.09
2019-06-27T08:38:49.124Z,44.56
2019-06-27T08:39:49.017Z,44.95
2019-06-27T08:40:49.013Z,44.78
2019-06-27T08:41:48.999Z,45.96
2019-06-27T08:42:48.986Z,44.92
2019-06-27T08:43:49.033Z,46.18
2019-06-27T08:44:49.010Z,44.60
2019-06-27T08:45:48.970Z,44.19
2019-06-27T08:46:48.950Z,43.75
2019-06-27T08:47:48.983Z,42.65
2019-06-27T08:48:48.948Z,44.95
2019-06-27T08:49:48.917Z,44.17
2019-06-27T08:50:49.014Z,44.24
2019-06-27T08:51:48.913Z,44.08
2019-06-27T08:52:48.908Z,42.32
2019-06-27T08:53:48.920Z,42.33
2019-06-27T08:54:48.876Z,42.65
2019-06-27T08:55:48.864Z,42.65
2019-06-27T08:56:48.875Z,42.75
2019-06-27T08:57:48.844Z,42.45
2019-06-27T08:58:48.905Z,42.33
2019-06-27T08:59:48.833Z,43.14
2019-06-27T09:00:48.811Z,42.96
2019-06-27T09:01:48.805Z,42.86
2019-06-27T09:02:48.801Z,41.14
2019-06-27T09:03:48.821Z,41.39
2019-06-27T09:04:48.811Z,40.03
2019-06-27T09:05:48.783Z,40.47
2019-06-27T09:06:48.784Z,42.08
2019-06-27T09:07:48.766Z,42.65
2019-06-27T09:08:48.778Z,41.00
2019-06-27T09:09:48.722Z,40.62
2019-06-27T09:10:48.770Z,41.14
2019-06-27T09:11:48.716Z,42.04
2019-06-27T09:12:48.705Z,42.57
2019-06-27T09:13:48.697Z,41.74
2019-06-27T09:14:48.689Z,41.55
2019-06-27T09:15:48.844Z,40.16
2019-06-27T09:16:48.658Z,40.98
2019-06-27T09:17:48.742Z,42.69
2019-06-27T09:18:48.641Z,42.79
2019-06-27T09:19:48.632Z,43.10
2019-06-27T09:20:48.699Z,43.89
2019-06-27T09:21:48.645Z,44.22
2019-06-27T09:22:48.623Z,41.06
2019-06-27T09:23:48.593Z,41.08
2019-06-27T09:24:48.634Z,42.63
2019-06-27T09:25:48.583Z,41.02
2019-06-27T09:26:48.606Z,41.09
2019-06-27T09:27:48.580Z,40.80
2019-06-27T09:28:48.561Z,42.18
2019-06-27T09:29:48.690Z,39.90
2019-06-27T09:30:48.534Z,40.72
2019-06-27T09:31:48.572Z,40.09
2019-06-27T09:32:48.556Z,39.86
2019-06-27T09:33:48.508Z,39.07
2019-06-27T09:34:48.593Z,39.29
2019-06-27T09:35:48.478Z,38.88
2019-06-27T09:36:48.479Z,40.31
2019-06-27T09:37:48.477Z,40.43
2019-06-27T09:38:48.558Z,41.11
2019-06-27T09:39:48.462Z,40.23
2019-06-27T09:40:48.459Z,39.45
2019-06-27T09:41:48.432Z,40.16
2019-06-27T09:42:48.480Z,40.62
2019-06-27T09:43:48.441Z,40.01
2019-06-27T09:44:48.416Z,39.62
2019-06-27T09:45:48.397Z,39.49
2019-06-27T09:46:48.436Z,38.21
2019-06-27T09:47:48.391Z,38.16
2019-06-27T09:48:48.425Z,37.24
2019-06-27T09:49:48.355Z,38.24
2019-06-27T09:50:48.349Z,37.87
2019-06-27T09:51:48.391Z,37.95
2019-06-27T09:52:48.325Z,37.75
2019-06-27T09:53:48.420Z,37.45
2019-06-27T09:54:48.311Z,37.99
2019-06-27T09:55:48.306Z,35.64
2019-06-27T09:56:48.298Z,35.55
2019-06-27T09:57:48.363Z,35.35
2019-06-27T09:58:48.305Z,35.85
2019-06-27T09:59:48.412Z,35.36
2019-06-27T10:00:48.306Z,35.81
2019-06-27T10:01:48.248Z,35.99
2019-06-27T10:02:48.246Z,36.10
2019-06-27T10:03:48.263Z,36.26
2019-06-27T10:04:48.219Z,35.50
2019-06-27T10:05:48.297Z,35.85
2019-06-27T10:06:48.202Z,36.58
2019-06-27T10:07:48.191Z,35.38
2019-06-27T10:08:48.207Z,34.14
2019-06-27T10:09:48.226Z,34.38
2019-06-27T10:10:48.197Z,35.46
2019-06-27T10:11:48.162Z,35.25
2019-06-27T10:12:48.172Z,33.69
2019-06-27T10:13:48.187Z,34.36
2019-06-27T10:14:48.190Z,33.73
2019-06-27T10:15:48.131Z,32.92
2019-06-27T10:16:48.129Z,32.29
2019-06-27T10:17:48.165Z,33.87
2019-06-27T10:18:48.105Z,34.16
2019-06-27T10:19:48.232Z,33.75
2019-06-27T10:20:48.195Z,33.67
2019-06-27T10:21:48.149Z,34.05
2019-06-27T10:22:48.062Z,32.21
2019-06-27T10:23:48.106Z,33.64
2019-06-27T10:24:48.067Z,32.76
2019-06-27T10:25:48.082Z,31.80
2019-06-27T10:26:48.064Z,33.23
2019-06-27T10:27:48.046Z,33.25
2019-06-27T10:28:48.011Z,32.86
2019-06-27T10:29:48.017Z,33.17
2019-06-27T10:30:49.323Z,32.19
2019-06-27T10:31:48.005Z,32.16
2019-06-27T10:32:58.484Z,32.06
2019-06-27T10:33:49.019Z,34.12
2019-06-27T10:34:47.994Z,33.48
2019-06-27T10:35:48.021Z,32.55
2019-06-27T10:36:47.968Z,33.70
2019-06-27T10:37:47.940Z,32.39
2019-06-27T10:38:47.925Z,31.88
2019-06-27T10:39:47.951Z,32.75
2019-06-27T10:40:47.945Z,31.76
2019-06-27T10:41:47.968Z,32.15
2019-06-27T10:42:47.901Z,31.74
2019-06-27T10:43:47.895Z,31.90
2019-06-27T10:44:47.883Z,30.52
2019-06-27T10:45:47.920Z,30.08
2019-06-27T10:46:47.893Z,30.83
2019-06-27T10:47:47.888Z,30.75
2019-06-27T10:48:47.898Z,29.36
2019-06-27T10:49:47.848Z,32.17
2019-06-27T10:50:47.861Z,29.35
2019-06-27T10:51:47.926Z,28.74
2019-06-27T10:52:47.821Z,29.33
2019-06-27T10:53:47.833Z,29.54
2019-06-27T10:54:47.832Z,29.64
2019-06-27T10:55:47.790Z,29.44
2019-06-27T10:56:47.789Z,29.18
2019-06-27T10:57:47.808Z,30.31
2019-06-27T10:58:47.820Z,30.19
2019-06-27T10:59:47.766Z,30.70
2019-06-27T11:00:47.789Z,31.82
2019-06-27T11:01:47.791Z,32.19
2019-06-27T11:02:47.803Z,32.11
2019-06-27T11:03:47.808Z,32.42
2019-06-27T11:04:47.716Z,32.32
2019-06-27T11:05:47.710Z,33.02
2019-06-27T11:06:47.744Z,33.70
2019-06-27T11:07:47.725Z,32.92
2019-06-27T11:08:47.740Z,33.01
2019-06-27T11:09:50.233Z,32.67
2019-06-27T11:10:47.668Z,31.87
2019-06-27T11:11:47.714Z,32.81
2019-06-27T11:12:47.652Z,29.30
2019-06-27T11:13:58.345Z,30.43
2019-06-27T11:14:58.751Z,28.29
2019-06-27T11:15:49.454Z,29.36
2019-06-27T11:16:47.635Z,28.88
2019-06-27T11:17:47.636Z,29.76
2019-06-27T11:18:47.641Z,30.07
2019-06-27T11:19:52.376Z,29.66
2019-06-27T11:20:48.580Z,29.99
2019-06-27T11:21:47.614Z,30.29
2019-06-27T11:22:47.609Z,29.89
2019-06-27T11:23:47.557Z,30.38
2019-06-27T11:24:47.593Z,29.21
2019-06-27T11:25:47.550Z,31.64
2019-06-27T11:26:47.684Z,30.98
2019-06-27T11:27:47.574Z,31.45
2019-06-27T11:28:47.586Z,29.71
2019-06-27T11:29:47.554Z,30.49
2019-06-27T11:30:47.550Z,31.16
2019-06-27T11:31:47.496Z,30.72
2019-06-27T11:32:47.494Z,28.97
2019-06-27T11:33:47.534Z,28.75
2019-06-27T11:34:47.498Z,28.93
2019-06-27T11:35:47.508Z,27.84
2019-06-27T11:36:47.452Z,27.73
2019-06-27T11:37:47.471Z,27.86
2019-06-27T11:38:47.480Z,29.12
2019-06-27T11:39:47.424Z,28.04
2019-06-27T11:40:47.423Z,29.00
2019-06-27T11:41:47.447Z,27.22
2019-06-27T11:42:47.413Z,27.40
2019-06-27T11:43:47.436Z,28.19
2019-06-27T11:44:47.383Z,27.79
2019-06-27T11:45:47.380Z,26.45
2019-06-27T11:46:47.401Z,27.53
2019-06-27T11:47:47.420Z,26.68
2019-06-27T11:48:47.440Z,27.87
2019-06-27T11:49:47.400Z,27.78
2019-06-27T11:50:47.333Z,28.20
2019-06-27T11:51:47.329Z,28.92
2019-06-27T11:52:47.737Z,29.97
2019-06-27T11:53:47.311Z,28.50
2019-06-27T11:54:47.338Z,28.61
2019-06-27T11:55:47.287Z,28.51
2019-06-27T11:56:47.355Z,30.10
2019-06-27T11:57:47.266Z,30.41
2019-06-27T11:58:47.261Z,29.44
2019-06-27T11:59:47.242Z,30.93
2019-06-27T12:00:47.323Z,30.87
2019-06-27T12:01:47.284Z,31.78
2019-06-27T12:02:47.247Z,33.18
2019-06-27T12:03:49.840Z,33.61
2019-06-27T12:04:47.237Z,33.70
2019-06-27T12:05:47.205Z,33.80
2019-06-27T12:06:47.191Z,33.80
2019-06-27T12:07:47.161Z,33.82
2019-06-27T12:08:47.176Z,33.74
2019-06-27T12:09:47.246Z,34.05
2019-06-27T12:10:47.166Z,34.28
2019-06-27T12:11:47.129Z,34.99
2019-06-27T12:12:47.156Z,36.95
2019-06-27T12:13:47.141Z,36.95
2019-06-27T12:14:47.100Z,36.26
2019-06-27T12:15:47.151Z,35.69
2019-06-27T12:16:47.103Z,36.18
2019-06-27T12:17:47.185Z,35.72
2019-06-27T12:18:47.103Z,36.79
2019-06-27T12:19:47.084Z,35.63
2019-06-27T12:20:47.098Z,37.01
2019-06-27T12:21:47.020Z,37.01
2019-06-27T12:22:47.005Z,36.80
2019-06-27T12:23:47.006Z,37.08
2019-06-27T12:24:47.059Z,35.90
2019-06-27T12:25:47.068Z,36.22
2019-06-27T12:26:46.969Z,38.78
2019-06-27T12:27:46.984Z,39.05
2019-06-27T12:28:46.942Z,36.41
2019-06-27T12:29:46.951Z,35.72
2019-06-27T12:30:46.941Z,37.01
2019-06-27T12:31:46.913Z,35.72
2019-06-27T12:32:52.290Z,35.74
2019-06-27T12:33:47.919Z,35.56
2019-06-27T12:34:46.885Z,35.46
2019-06-27T12:35:46.879Z,35.86
2019-06-27T12:36:46.862Z,38.12
2019-06-27T12:37:46.890Z,35.96
2019-06-27T12:38:46.841Z,37.04
2019-06-27T12:39:46.853Z,36.27
2019-06-27T12:40:46.825Z,36.17
2019-06-27T12:41:46.810Z,35.40
2019-06-27T12:42:46.816Z,37.07
2019-06-27T12:43:46.833Z,36.88
2019-06-27T12:44:46.782Z,36.19
2019-06-27T12:45:46.777Z,38.75
2019-06-27T12:46:46.762Z,39.12
2019-06-27T12:47:46.777Z,38.51
2019-06-27T12:48:46.812Z,36.94
2019-06-27T12:50:01.260Z,35.64
2019-06-27T12:50:47.722Z,35.56
2019-06-27T12:51:46.715Z,36.35
2019-06-27T12:52:46.701Z,36.05